This is the latest recevied weather packets stored in our database for station/object OK1FET-14. If no packets are shown the sender has not sent any weather packets the latest 1 day(s).
| Time | Temp. | Humidity | Pressure | Rain* | Wind** | Luminosity | Snow |
|---|---|---|---|---|---|---|---|
| 1778059142 | 13.33° C | 92% | 1008.2 hPa | - | - | - | - |
| 1778059141 | 13.33° C | 92% | 1008.2 hPa | - | - | - | - |
| 1778058857 | 13.89° C | 91% | 1008 hPa | - | - | - | - |
| 1778058577 | 12.78° C | 91% | 1008.2 hPa | - | - | - | - |
| 1778058577 | 12.78° C | 91% | 1008.2 hPa | - | - | - | - |
| 1778058577 | 12.78° C | 91% | 1008.2 hPa | - | - | - | - |
| 1778058577 | 12.78° C | 91% | 1008.2 hPa | - | - | - | - |
| 1778058296 | 13.33° C | 89% | 1008.3 hPa | - | - | - | - |
| 1778058296 | 13.33° C | 89% | 1008.3 hPa | - | - | - | - |
| 1778058296 | 13.33° C | 89% | 1008.3 hPa | - | - | - | - |
| 1778058020 | 14.44° C | 91% | 1008.1 hPa | - | - | - | - |
| 1778058020 | 14.44° C | 91% | 1008.1 hPa | - | - | - | - |
| 1778058020 | 14.44° C | 91% | 1008.1 hPa | - | - | - | - |
| 1778058020 | 14.44° C | 91% | 1008.1 hPa | - | - | - | - |
| 1778058016 | 14.44° C | 91% | 1008.1 hPa | - | - | - | - |
| 1778058016 | 14.44° C | 91% | 1008.1 hPa | - | - | - | - |
| 1778058016 | 14.44° C | 91% | 1008.1 hPa | - | - | - | - |
| 1778057455 | 13.89° C | 90% | 1008.2 hPa | - | - | - | - |
| 1778057455 | 13.89° C | 90% | 1008.2 hPa | - | - | - | - |
| 1778057455 | 13.89° C | 90% | 1008.2 hPa | - | - | - | - |
| 1778057175 | 14.44° C | 91% | 1008.1 hPa | - | - | - | - |
| 1778057175 | 14.44° C | 91% | 1008.1 hPa | - | - | - | - |
| 1778056614 | 15° C | 86% | 1008 hPa | - | - | - | - |
| 1778056053 | 15° C | 88% | 1007.8 hPa | - | - | - | - |
| 1778056053 | 15° C | 88% | 1007.8 hPa | - | - | - | - |
* Rain since midnight (hover to see other rain measurements)
** Current wind speed in m/s (hover to see current wind gust speed)